Time;durP1;ratioP1;P1;durP2;ratioP2;P2;SDS_P1;SDS_P2;PMS_P1;PMS_P2;Temp;Humidity;BMP_temperature;BMP_pressure;BME280_temperature;BME280_humidity;BME280_pressure;Samples;Min_cycle;Max_cycle;Signal;HPM_P1;HPM_P2
2023/03/12 00:04:01;;;;;;;;;;;16.80;58.40;;;;;;10206783;28;93050;-71
2023/03/12 00:09:03;;;;;;;;;;;16.80;58.30;;;;;;10186604;28;95825;-72
2023/03/12 00:14:05;;;;;;;;;;;16.70;58.10;;;;;;10206613;28;94376;-70
2023/03/12 00:19:07;;;;;;;;;;;16.70;58.10;;;;;;10206469;28;93100;-72
2023/03/12 00:24:08;;;;;;;;;;;16.70;58.00;;;;;;10205744;28;94805;-71
2023/03/12 00:29:10;;;;;;;;;;;16.70;57.90;;;;;;10205864;28;94565;-72
2023/03/12 00:34:12;;;;;;;;;;;16.70;57.80;;;;;;10187957;28;93347;-71
2023/03/12 00:39:14;;;;;;;;;;;16.70;57.80;;;;;;10188436;28;94176;-72
2023/03/12 00:44:16;;;;;;;;;;;16.70;57.80;;;;;;10206276;28;92495;-72
2023/03/12 00:49:18;;;;;;;;;;;16.60;57.70;;;;;;10205087;28;94036;-72
2023/03/12 00:54:20;;;;;;;;;;;16.60;57.60;;;;;;10204402;28;93259;-72
2023/03/12 00:59:21;;;;;;;;;;;16.60;57.60;;;;;;10185885;28;95663;-71
2023/03/12 01:04:23;;;;;;;;;;;16.60;57.50;;;;;;10188982;28;94513;-72
2023/03/12 01:09:25;;;;;;;;;;;16.60;57.40;;;;;;10194239;28;94319;-72
2023/03/12 01:14:27;;;;;;;;;;;16.60;57.40;;;;;;10211413;28;93541;-72
2023/03/12 01:19:28;;;;;;;;;;;16.60;57.30;;;;;;10211429;28;93704;-72
2023/03/12 01:24:30;;;;;;;;;;;16.50;57.20;;;;;;10211307;28;94240;-72
2023/03/12 01:29:32;;;;;;;;;;;16.50;57.10;;;;;;10211642;28;94758;-71
2023/03/12 01:34:34;;;;;;;;;;;16.50;57.00;;;;;;10210644;28;93804;-72
2023/03/12 01:39:36;;;;;;;;;;;16.50;56.90;;;;;;10193194;28;93678;-72
2023/03/12 01:44:50;;;;;;;;;;;16.50;56.80;;;;;;10210763;28;94783;-71
2023/03/12 01:49:54;;;;;;;;;;;16.50;56.80;;;;;;10207772;28;97202;-71
2023/03/12 01:55:01;;;;;;;;;;;16.40;56.60;;;;;;10210601;28;93267;-71
2023/03/12 02:00:15;;;;;;;;;;;16.40;56.60;;;;;;10210156;28;93327;-71
2023/03/12 02:05:28;;;;;;;;;;;16.40;56.50;;;;;;10210898;28;94329;-72
2023/03/12 02:10:30;;;;;;;;;;;16.40;56.50;;;;;;10209429;28;93981;-71
2023/03/12 02:15:32;;;;;;;;;;;16.40;56.40;;;;;;10209587;28;93371;-72
2023/03/12 02:21:00;;;;;;;;;;;16.30;56.30;;;;;;10209458;28;93833;-71
2023/03/12 02:26:03;;;;;;;;;;;16.30;56.40;;;;;;10186818;28;93622;-72
2023/03/12 02:31:06;;;;;;;;;;;16.30;56.20;;;;;;10208222;28;93477;-71
2023/03/12 02:36:08;;;;;;;;;;;16.30;56.30;;;;;;10209303;28;94223;-70
2023/03/12 02:41:11;;;;;;;;;;;16.20;56.10;;;;;;10208729;28;95814;-70
2023/03/12 02:46:13;;;;;;;;;;;16.20;56.10;;;;;;10192530;28;94483;-70
2023/03/12 02:51:15;;;;;;;;;;;16.20;56.00;;;;;;10208882;28;94336;-71
2023/03/12 02:56:17;;;;;;;;;;;16.20;55.90;;;;;;10209051;28;93323;-70
2023/03/12 03:01:19;;;;;;;;;;;16.20;56.00;;;;;;10208898;28;94522;-70
2023/03/12 03:06:21;;;;;;;;;;;16.20;56.00;;;;;;10208205;28;94885;-70
2023/03/12 03:11:23;;;;;;;;;;;16.10;56.00;;;;;;10207766;28;94505;-71
2023/03/12 03:16:25;;;;;;;;;;;16.10;55.90;;;;;;10208644;28;92542;-71
2023/03/12 03:21:27;;;;;;;;;;;16.10;55.90;;;;;;10207887;28;93250;-71
2023/03/12 03:26:28;;;;;;;;;;;16.10;55.90;;;;;;10189418;28;93260;-71
2023/03/12 03:31:30;;;;;;;;;;;16.10;55.90;;;;;;10204792;28;95546;-71
2023/03/12 03:36:32;;;;;;;;;;;16.10;55.80;;;;;;10206750;28;93115;-71
2023/03/12 03:41:34;;;;;;;;;;;16.00;55.80;;;;;;10207004;28;93548;-71
2023/03/12 03:46:35;;;;;;;;;;;16.00;55.80;;;;;;10206018;28;93773;-71
2023/03/12 03:51:37;;;;;;;;;;;16.00;55.80;;;;;;10207216;28;93819;-71
2023/03/12 03:56:39;;;;;;;;;;;16.00;55.80;;;;;;10206631;28;93583;-71
2023/03/12 04:01:42;;;;;;;;;;;16.00;55.80;;;;;;10206547;28;93917;-71
2023/03/12 04:06:43;;;;;;;;;;;16.00;55.80;;;;;;10190274;28;93467;-70
2023/03/12 04:11:45;;;;;;;;;;;16.00;55.90;;;;;;10205781;28;94453;-70
2023/03/12 04:16:47;;;;;;;;;;;16.00;55.90;;;;;;10206954;28;94925;-70
2023/03/12 04:21:49;;;;;;;;;;;15.90;55.90;;;;;;10203184;28;95797;-70
2023/03/12 04:26:50;;;;;;;;;;;15.90;55.90;;;;;;10187518;28;93497;-70
2023/03/12 04:31:52;;;;;;;;;;;16.00;56.00;;;;;;10205622;28;93263;-71
2023/03/12 04:36:54;;;;;;;;;;;15.90;55.90;;;;;;10205382;28;94516;-71
2023/03/12 04:41:56;;;;;;;;;;;15.90;55.90;;;;;;10210450;28;94912;-71
2023/03/12 06:04:43;;;;;;;;;;;16.30;55.80;;;;;;10194416;28;92280;-68
2023/03/12 06:09:44;;;;;;;;;;;16.40;56.30;;;;;;10193293;28;93275;-70
2023/03/12 06:14:46;;;;;;;;;;;16.50;55.50;;;;;;10193177;28;94638;-70
2023/03/12 06:19:51;;;;;;;;;;;16.50;55.50;;;;;;10190368;28;96636;-70
2023/03/12 06:24:53;;;;;;;;;;;16.50;55.30;;;;;;10192727;28;94145;-70
2023/03/12 06:29:55;;;;;;;;;;;16.50;55.40;;;;;;10208173;28;94485;-70
2023/03/12 06:34:59;;;;;;;;;;;16.50;55.40;;;;;;10209426;28;94096;-70
2023/03/12 06:40:01;;;;;;;;;;;16.50;55.60;;;;;;10209575;28;94489;-70
2023/03/12 06:45:03;;;;;;;;;;;16.50;55.60;;;;;;10209721;28;93690;-70
2023/03/12 06:50:05;;;;;;;;;;;16.60;55.60;;;;;;10188338;28;93418;-70
2023/03/12 06:55:07;;;;;;;;;;;16.60;55.50;;;;;;10211312;28;93959;-70
2023/03/12 07:00:09;;;;;;;;;;;16.60;55.70;;;;;;10209053;28;94170;-70
2023/03/12 07:05:11;;;;;;;;;;;16.60;55.80;;;;;;10190136;28;96990;-70
2023/03/12 07:10:13;;;;;;;;;;;16.60;55.80;;;;;;10187974;28;97179;-69
2023/03/12 07:15:14;;;;;;;;;;;16.60;55.90;;;;;;10208189;28;94251;-70
2023/03/12 07:20:16;;;;;;;;;;;16.60;56.00;;;;;;10209052;28;93342;-70
2023/03/12 07:25:18;;;;;;;;;;;16.60;56.00;;;;;;10208183;28;93807;-71
2023/03/12 07:30:20;;;;;;;;;;;16.60;56.20;;;;;;10207260;28;93895;-71
2023/03/12 07:35:22;;;;;;;;;;;16.60;56.20;;;;;;10207387;28;93746;-69
2023/03/12 07:40:24;;;;;;;;;;;16.60;56.20;;;;;;10207223;28;93548;-69
2023/03/12 07:45:26;;;;;;;;;;;16.60;56.30;;;;;;10209030;28;93748;-71
2023/03/12 07:50:29;;;;;;;;;;;16.60;56.50;;;;;;10206711;28;93544;-71
2023/03/12 07:55:31;;;;;;;;;;;16.60;56.60;;;;;;10190480;28;94193;-71
2023/03/12 08:00:33;;;;;;;;;;;16.60;56.60;;;;;;10202996;28;97168;-70
2023/03/12 08:05:35;;;;;;;;;;;16.60;56.60;;;;;;10207788;28;93723;-71
2023/03/12 08:10:37;;;;;;;;;;;16.60;56.70;;;;;;10207957;28;94904;-70
2023/03/12 08:15:39;;;;;;;;;;;16.60;56.80;;;;;;10208848;28;93359;-70
2023/03/12 08:20:41;;;;;;;;;;;16.60;56.80;;;;;;10214239;28;93432;-70
2023/03/12 08:25:46;;;;;;;;;;;16.70;56.80;;;;;;10196270;28;93667;-71
2023/03/12 08:30:49;;;;;;;;;;;16.70;56.90;;;;;;10195832;28;93490;-70
2023/03/12 08:35:51;;;;;;;;;;;16.70;56.90;;;;;;10213638;28;93378;-77
2023/03/12 08:40:54;;;;;;;;;;;16.60;57.50;;;;;;10196569;28;94820;-72
2023/03/12 08:45:56;;;;;;;;;;;16.60;57.70;;;;;;10195215;28;94077;-71
2023/03/12 08:51:02;;;;;;;;;;;16.60;58.50;;;;;;10192353;28;96128;-69
2023/03/12 08:56:04;;;;;;;;;;;16.70;59.80;;;;;;10213195;28;94388;-69
2023/03/12 09:01:10;;;;;;;;;;;16.70;59.10;;;;;;10212206;28;94006;-68
2023/03/12 09:06:15;;;;;;;;;;;16.80;59.30;;;;;;10178403;28;94730;-67
2023/03/12 09:11:17;;;;;;;;;;;16.80;58.60;;;;;;10208819;28;93491;-68
2023/03/12 09:16:19;;;;;;;;;;;16.90;58.40;;;;;;10208272;28;94487;-67
2023/03/12 09:21:21;;;;;;;;;;;16.90;58.30;;;;;;10209299;28;94052;-66
2023/03/12 09:26:23;;;;;;;;;;;16.80;58.10;;;;;;10194306;28;92568;-67
2023/03/12 09:31:24;;;;;;;;;;;16.90;58.10;;;;;;10193540;28;93851;-67
2023/03/12 09:36:26;;;;;;;;;;;16.80;57.90;;;;;;10193960;28;93476;-67
2023/03/12 09:41:30;;;;;;;;;;;16.80;58.00;;;;;;10191709;28;96853;-67
2023/03/12 09:46:44;;;;;;;;;;;16.80;58.00;;;;;;10211012;28;95147;-66
2023/03/12 09:51:48;;;;;;;;;;;16.80;57.90;;;;;;10210496;28;92882;-67
2023/03/12 09:56:51;;;;;;;;;;;16.80;57.90;;;;;;10211726;28;94821;-67
2023/03/12 10:01:57;;;;;;;;;;;16.80;57.90;;;;;;10210127;28;93840;-68
2023/03/12 10:07:04;;;;;;;;;;;16.80;57.90;;;;;;10194095;28;94263;-67
2023/03/12 10:12:06;;;;;;;;;;;16.70;58.00;;;;;;10209723;28;93459;-67
2023/03/12 10:17:10;;;;;;;;;;;16.70;57.80;;;;;;10210858;28;113022;-68
2023/03/12 10:22:27;;;;;;;;;;;16.70;58.80;;;;;;10210147;28;94639;-67
2023/03/12 10:27:33;;;;;;;;;;;16.70;57.80;;;;;;10210251;28;92888;-67
2023/03/12 10:32:37;;;;;;;;;;;16.70;57.80;;;;;;10207584;28;95751;-68
2023/03/12 10:37:42;;;;;;;;;;;16.70;57.80;;;;;;10209784;28;94447;-67
2023/03/12 10:42:43;;;;;;;;;;;16.70;57.80;;;;;;10209221;28;93749;-67
2023/03/12 10:47:49;;;;;;;;;;;16.70;57.80;;;;;;10208674;28;94723;-67
2023/03/12 10:52:52;;;;;;;;;;;16.70;57.80;;;;;;10208901;28;93574;-67
2023/03/12 10:57:54;;;;;;;;;;;16.70;57.80;;;;;;10207794;28;92647;-68
2023/03/12 11:02:57;;;;;;;;;;;16.70;57.80;;;;;;10209287;28;93498;-67
2023/03/12 11:08:00;;;;;;;;;;;16.70;57.90;;;;;;10209218;28;92935;-67
2023/03/12 11:13:20;;;;;;;;;;;16.70;57.80;;;;;;10208141;28;94580;-67
2023/03/12 11:18:26;;;;;;;;;;;16.70;57.80;;;;;;10209541;28;94462;-68
2023/03/12 11:23:29;;;;;;;;;;;16.80;57.90;;;;;;10188706;28;95998;-67
2023/03/12 11:28:36;;;;;;;;;;;17.00;57.60;;;;;;10190805;28;93994;-66
2023/03/12 11:33:37;;;;;;;;;;;17.20;57.40;;;;;;10207255;28;93704;-68
2023/03/12 11:38:48;;;;;;;;;;;17.40;57.00;;;;;;10208155;28;93690;-67
2023/03/12 11:44:05;;;;;;;;;;;17.50;56.80;;;;;;10206964;28;94394;-67
2023/03/12 11:49:07;;;;;;;;;;;17.50;56.70;;;;;;10190563;28;93401;-67
2023/03/12 11:54:22;;;;;;;;;;;17.60;57.00;;;;;;10190646;28;94380;-68
2023/03/12 11:59:37;;;;;;;;;;;17.70;57.10;;;;;;10207538;28;92053;-70
2023/03/12 12:10:06;;;;;;;;;;;18.00;60.80;;;;;;10201761;28;93857;-69
2023/03/12 12:15:17;;;;;;;;;;;18.30;59.50;;;;;;10204428;28;96793;-67
2023/03/12 12:20:42;;;;;;;;;;;18.50;59.50;;;;;;10206009;28;93556;-64
2023/03/12 12:26:04;;;;;;;;;;;18.50;59.30;;;;;;10206039;28;93886;-65
2023/03/12 12:31:24;;;;;;;;;;;18.50;59.10;;;;;;10206350;28;94566;-66
2023/03/12 12:36:29;;;;;;;;;;;18.40;59.20;;;;;;10187798;28;93941;-65
2023/03/12 12:41:34;;;;;;;;;;;18.30;59.40;;;;;;10204617;28;94259;-65
2023/03/12 12:46:42;;;;;;;;;;;18.20;59.90;;;;;;10205477;28;94304;-67
2023/03/12 12:51:49;;;;;;;;;;;18.10;60.20;;;;;;10205176;28;92724;-66
2023/03/12 12:56:52;;;;;;;;;;;18.00;60.70;;;;;;10205506;28;93076;-66
2023/03/12 13:01:55;;;;;;;;;;;18.00;60.80;;;;;;10208224;28;93682;-66
2023/03/12 13:06:59;;;;;;;;;;;18.00;60.90;;;;;;10208186;28;96980;-66
2023/03/12 13:12:27;;;;;;;;;;;17.90;60.90;;;;;;10211876;28;92902;-67
2023/03/12 13:17:29;;;;;;;;;;;17.90;60.80;;;;;;10195324;28;94499;-67
2023/03/12 13:22:50;;;;;;;;;;;17.80;60.80;;;;;;10211628;28;92450;-67
2023/03/12 13:28:17;;;;;;;;;;;17.80;60.90;;;;;;10211699;28;94469;-66
2023/03/12 13:33:35;;;;;;;;;;;17.80;60.90;;;;;;10209495;28;93387;-67
2023/03/12 13:38:50;;;;;;;;;;;17.80;61.10;;;;;;10211433;28;94623;-67
2023/03/12 13:43:53;;;;;;;;;;;17.70;60.80;;;;;;10209816;28;93524;-68
2023/03/12 13:48:58;;;;;;;;;;;17.70;60.90;;;;;;10194017;28;94432;-69
2023/03/12 13:54:01;;;;;;;;;;;17.70;60.90;;;;;;10210802;28;93551;-71
2023/03/12 13:59:06;;;;;;;;;;;17.70;61.10;;;;;;10207956;28;96511;-70
2023/03/12 14:04:11;;;;;;;;;;;17.70;61.20;;;;;;10193144;28;94569;-70
2023/03/12 14:09:13;;;;;;;;;;;17.70;61.30;;;;;;10191807;28;93477;-68
2023/03/12 14:14:27;;;;;;;;;;;17.70;61.20;;;;;;10191920;28;93439;-66
2023/03/12 14:19:30;;;;;;;;;;;17.70;61.10;;;;;;10208672;28;94507;-67
2023/03/12 14:24:46;;;;;;;;;;;17.70;61.10;;;;;;10208471;28;93470;-69
2023/03/12 14:29:51;;;;;;;;;;;17.70;61.00;;;;;;10208855;28;95622;-70
2023/03/12 14:34:57;;;;;;;;;;;17.80;60.80;;;;;;10209661;28;93220;-68
2023/03/12 14:40:07;;;;;;;;;;;17.90;60.70;;;;;;10205292;28;94257;-66
2023/03/12 14:45:10;;;;;;;;;;;17.80;60.70;;;;;;10249609;28;95692;-67
2023/03/12 14:50:16;;;;;;;;;;;17.80;60.70;;;;;;10246411;28;95945;-66
2023/03/12 14:55:19;;;;;;;;;;;17.80;60.80;;;;;;10248510;28;94285;-65
2023/03/12 15:00:26;;;;;;;;;;;17.80;60.30;;;;;;10230478;28;93649;-65
2023/03/12 15:05:27;;;;;;;;;;;17.80;60.10;;;;;;10245498;28;93659;-66
2023/03/12 15:10:30;;;;;;;;;;;17.70;60.20;;;;;;10248586;28;94197;-66
2023/03/12 15:15:36;;;;;;;;;;;17.80;60.40;;;;;;10246388;28;94075;-67
2023/03/12 15:20:38;;;;;;;;;;;17.80;62.50;;;;;;10247000;28;93055;-69
2023/03/12 15:25:40;;;;;;;;;;;17.80;62.00;;;;;;10247427;28;92121;-69
2023/03/12 15:30:43;;;;;;;;;;;17.80;61.50;;;;;;10245994;28;93478;-67
2023/03/12 15:35:58;;;;;;;;;;;17.80;61.40;;;;;;10247552;28;93698;-69
2023/03/12 15:41:04;;;;;;;;;;;17.80;61.20;;;;;;10244865;28;96404;-68
2023/03/12 15:46:06;;;;;;;;;;;17.80;61.40;;;;;;10246839;28;94496;-65
2023/03/12 15:51:25;;;;;;;;;;;17.90;60.90;;;;;;10246044;28;93367;-70
2023/03/12 15:56:29;;;;;;;;;;;18.00;60.50;;;;;;10229106;28;93418;-70
2023/03/12 16:01:42;;;;;;;;;;;18.10;60.00;;;;;;10246326;28;93531;-70
2023/03/12 16:06:47;;;;;;;;;;;18.30;59.50;;;;;;10244818;28;93694;-70
2023/03/12 16:11:48;;;;;;;;;;;18.40;59.20;;;;;;10245321;28;94446;-70
2023/03/12 16:16:50;;;;;;;;;;;18.40;58.80;;;;;;10247011;28;93458;-70
2023/03/12 16:21:52;;;;;;;;;;;18.50;58.80;;;;;;10227595;28;93568;-71
2023/03/12 16:26:55;;;;;;;;;;;18.60;58.60;;;;;;10246768;28;93402;-70
2023/03/12 16:31:57;;;;;;;;;;;18.60;58.40;;;;;;10241838;28;95984;-72
2023/03/12 16:36:59;;;;;;;;;;;18.60;58.40;;;;;;10230831;28;93527;-70
2023/03/12 16:42:01;;;;;;;;;;;18.50;59.00;;;;;;10252690;28;94083;-71
2023/03/12 16:47:04;;;;;;;;;;;18.50;59.50;;;;;;10234879;28;93340;-73
2023/03/12 16:52:16;;;;;;;;;;;18.50;60.50;;;;;;10252578;28;94405;-69
2023/03/12 16:57:30;;;;;;;;;;;18.50;62.60;;;;;;10253208;28;94753;-67
2023/03/12 17:02:32;;;;;;;;;;;18.40;63.30;;;;;;10254295;28;94568;-77
2023/03/12 17:07:34;;;;;;;;;;;18.40;64.20;;;;;;10252117;28;92777;-69
2023/03/12 17:12:37;;;;;;;;;;;18.40;64.50;;;;;;10251546;28;94277;-71
2023/03/12 17:17:39;;;;;;;;;;;18.40;64.70;;;;;;10251367;28;93380;-67
2023/03/12 17:22:44;;;;;;;;;;;18.30;63.60;;;;;;10230744;28;95740;-68
2023/03/12 17:27:45;;;;;;;;;;;18.30;62.90;;;;;;10250584;28;94505;-65
2023/03/12 17:32:47;;;;;;;;;;;18.20;61.70;;;;;;10250937;28;93497;-65
2023/03/12 17:37:49;;;;;;;;;;;18.10;61.30;;;;;;10233126;28;93542;-63
2023/03/12 17:42:51;;;;;;;;;;;18.10;61.70;;;;;;10251044;28;94495;-65
2023/03/12 17:47:53;;;;;;;;;;;18.00;62.60;;;;;;10249929;28;94065;-65
2023/03/12 17:52:55;;;;;;;;;;;18.00;62.50;;;;;;10232329;28;94472;-65
2023/03/12 17:57:57;;;;;;;;;;;17.90;62.70;;;;;;10247970;28;93006;-65
2023/03/12 18:02:58;;;;;;;;;;;17.80;62.80;;;;;;10250351;28;94454;-65
2023/03/12 18:08:00;;;;;;;;;;;17.80;63.10;;;;;;10248907;28;93280;-65
2023/03/12 18:13:02;;;;;;;;;;;17.70;63.10;;;;;;10246996;28;95932;-65
2023/03/12 18:18:03;;;;;;;;;;;17.70;63.30;;;;;;10248362;28;93518;-65
2023/03/12 18:23:05;;;;;;;;;;;17.70;63.60;;;;;;10248426;28;93597;-65
2023/03/12 18:28:07;;;;;;;;;;;17.60;63.70;;;;;;10248099;28;94627;-67
2023/03/12 18:33:09;;;;;;;;;;;17.60;63.90;;;;;;10248171;28;94033;-66
2023/03/12 18:38:11;;;;;;;;;;;17.50;63.90;;;;;;10215852;28;92645;-66
2023/03/12 18:43:13;;;;;;;;;;;17.50;63.90;;;;;;10248058;28;94505;-64
2023/03/12 18:48:14;;;;;;;;;;;17.50;63.90;;;;;;10232422;28;92675;-64
2023/03/12 18:53:16;;;;;;;;;;;17.40;64.70;;;;;;10229490;28;93473;-67
2023/03/12 18:58:18;;;;;;;;;;;17.40;63.70;;;;;;10247512;28;93519;-65
2023/03/12 19:03:20;;;;;;;;;;;17.30;63.70;;;;;;10246204;28;95893;-66
2023/03/12 19:08:22;;;;;;;;;;;17.30;63.70;;;;;;10247219;28;93399;-66
2023/03/12 19:13:24;;;;;;;;;;;17.30;63.70;;;;;;10247289;28;95013;-66
2023/03/12 19:18:26;;;;;;;;;;;17.30;63.90;;;;;;10230322;28;94508;-66
2023/03/12 19:23:28;;;;;;;;;;;17.30;64.00;;;;;;10247668;28;93881;-66
2023/03/12 19:28:30;;;;;;;;;;;17.40;64.00;;;;;;10246406;28;93705;-66
2023/03/12 19:33:34;;;;;;;;;;;17.40;64.20;;;;;;10246415;28;93504;-62
2023/03/12 19:38:36;;;;;;;;;;;17.40;64.10;;;;;;10247244;28;92836;-62
2023/03/12 19:43:39;;;;;;;;;;;17.40;64.10;;;;;;10247085;28;93559;-61
2023/03/12 19:48:41;;;;;;;;;;;17.40;64.10;;;;;;10228892;28;92768;-62
2023/03/12 19:53:42;;;;;;;;;;;17.40;64.20;;;;;;10242820;28;96824;-62
2023/03/12 19:58:44;;;;;;;;;;;17.40;63.90;;;;;;10195694;28;93692;-70
2023/03/12 20:03:46;;;;;;;;;;;17.40;64.40;;;;;;10189716;28;94265;-69
2023/03/12 20:08:48;;;;;;;;;;;17.40;65.30;;;;;;10207762;28;93448;-69
2023/03/12 20:13:49;;;;;;;;;;;17.50;64.70;;;;;;10214049;28;94820;-70
2023/03/12 20:18:51;;;;;;;;;;;17.40;64.20;;;;;;10196735;28;92802;-69
2023/03/12 20:23:56;;;;;;;;;;;17.40;64.00;;;;;;10193441;28;94541;-71
2023/03/12 20:29:01;;;;;;;;;;;17.40;64.10;;;;;;10214299;28;93811;-69
2023/03/12 20:34:02;;;;;;;;;;;17.40;64.20;;;;;;10211799;28;93761;-69
2023/03/12 20:39:04;;;;;;;;;;;17.40;64.00;;;;;;10213001;28;93834;-70
2023/03/12 20:44:06;;;;;;;;;;;17.40;63.90;;;;;;10211760;28;96194;-69
2023/03/12 20:49:07;;;;;;;;;;;17.40;63.80;;;;;;10232481;28;93512;-70
2023/03/12 20:54:09;;;;;;;;;;;17.40;63.80;;;;;;10253631;28;94124;-71
2023/03/12 20:59:11;;;;;;;;;;;17.40;63.70;;;;;;10252394;28;93809;-70
2023/03/12 21:04:13;;;;;;;;;;;17.40;63.70;;;;;;10252098;28;93010;-70
2023/03/12 21:09:15;;;;;;;;;;;17.40;63.70;;;;;;10249729;28;93586;-70
2023/03/12 21:14:17;;;;;;;;;;;17.30;63.70;;;;;;10251280;28;94493;-70
2023/03/12 21:19:18;;;;;;;;;;;17.30;63.70;;;;;;10251960;28;94228;-70
2023/03/12 21:24:20;;;;;;;;;;;17.30;63.60;;;;;;10232853;28;93484;-70
2023/03/12 21:29:22;;;;;;;;;;;17.30;63.60;;;;;;10251577;28;94124;-70
2023/03/12 21:34:23;;;;;;;;;;;17.20;63.70;;;;;;10248863;28;95590;-69
2023/03/12 21:39:26;;;;;;;;;;;17.20;63.70;;;;;;10250780;28;93496;-69
2023/03/12 21:44:27;;;;;;;;;;;17.10;63.70;;;;;;10250635;28;93410;-69
2023/03/12 21:49:30;;;;;;;;;;;17.10;63.80;;;;;;10250982;28;93042;-69
2023/03/12 21:54:33;;;;;;;;;;;17.10;63.80;;;;;;10250161;28;93247;-69
2023/03/12 21:59:35;;;;;;;;;;;17.10;63.80;;;;;;10250997;28;94438;-69
2023/03/12 22:04:36;;;;;;;;;;;17.00;63.80;;;;;;10250045;28;93496;-69
2023/03/12 22:09:38;;;;;;;;;;;17.00;63.80;;;;;;10250244;28;92724;-69
2023/03/12 22:14:40;;;;;;;;;;;17.00;63.90;;;;;;10232454;28;94075;-69
2023/03/12 22:19:42;;;;;;;;;;;17.00;63.90;;;;;;10249485;28;94138;-70
2023/03/12 22:24:43;;;;;;;;;;;16.90;63.90;;;;;;10245090;28;96759;-70
2023/03/12 22:29:45;;;;;;;;;;;16.90;63.80;;;;;;10232835;28;94423;-70
2023/03/12 22:34:48;;;;;;;;;;;16.90;63.90;;;;;;10231257;28;94361;-70
2023/03/12 22:39:50;;;;;;;;;;;16.90;63.90;;;;;;10249058;28;94426;-70
2023/03/12 22:44:51;;;;;;;;;;;16.80;63.80;;;;;;10249425;28;94632;-70
2023/03/12 22:49:56;;;;;;;;;;;16.80;63.80;;;;;;10247757;28;94549;-70
2023/03/12 22:54:57;;;;;;;;;;;16.80;63.70;;;;;;10247468;28;94142;-70
2023/03/12 22:59:59;;;;;;;;;;;16.80;63.60;;;;;;10248805;28;92641;-70
2023/03/12 23:05:02;;;;;;;;;;;16.70;63.60;;;;;;10248647;28;94629;-70
2023/03/12 23:10:03;;;;;;;;;;;16.70;63.60;;;;;;10248428;28;94646;-70
2023/03/12 23:15:05;;;;;;;;;;;16.70;63.50;;;;;;10245054;28;95416;-69
2023/03/12 23:20:08;;;;;;;;;;;16.70;63.50;;;;;;10230477;28;94434;-70
2023/03/12 23:25:10;;;;;;;;;;;16.70;63.40;;;;;;10248418;28;93782;-70
2023/03/12 23:30:12;;;;;;;;;;;16.70;63.40;;;;;;10247394;28;94643;-70
2023/03/12 23:35:13;;;;;;;;;;;16.60;63.30;;;;;;10247945;28;94636;-71
2023/03/12 23:40:16;;;;;;;;;;;16.60;63.30;;;;;;10246969;28;93704;-71
2023/03/12 23:45:17;;;;;;;;;;;16.60;63.30;;;;;;10245972;28;93823;-70
2023/03/12 23:50:19;;;;;;;;;;;16.60;63.20;;;;;;10248062;28;94034;-70
2023/03/12 23:55:21;;;;;;;;;;;16.60;63.20;;;;;;10246826;28;94256;-70
